Time;durP1;ratioP1;P1;durP2;ratioP2;P2;SDS_P1;SDS_P2;PMS_P1;PMS_P2;Temp;Humidity;BMP_temperature;BMP_pressure;BME280_temperature;BME280_humidity;BME280_pressure;Samples;Min_cycle;Max_cycle;Signal;HPM_P1;HPM_P2
2023/03/19 00:00:41;;;;;;;7.72;4.10;;;5.60;99.90;;;;;;8194391;28;20082;-78
2023/03/19 00:04:41;;;;;;;9.93;4.70;;;5.60;99.90;;;;;;8179017;28;20054;-78
2023/03/19 00:08:42;;;;;;;9.77;4.50;;;5.50;99.90;;;;;;8194260;28;20035;-78
2023/03/19 00:12:42;;;;;;;14.15;5.38;;;5.50;99.90;;;;;;8195363;28;20019;-78
2023/03/19 00:16:43;;;;;;;7.93;4.68;;;5.50;99.90;;;;;;8191821;28;20027;-78
2023/03/19 00:20:44;;;;;;;7.15;4.20;;;5.80;99.90;;;;;;8191206;28;20031;-78
2023/03/19 00:24:45;;;;;;;6.70;4.43;;;5.90;99.90;;;;;;8190856;28;20424;-78
2023/03/19 00:28:45;;;;;;;8.85;5.00;;;5.90;99.90;;;;;;8193652;28;20027;-78
2023/03/19 00:32:46;;;;;;;8.00;4.30;;;5.90;99.90;;;;;;8193964;28;20015;-78
2023/03/19 00:36:47;;;;;;;10.05;5.50;;;5.90;99.90;;;;;;8193506;28;20031;-78
2023/03/19 00:40:48;;;;;;;9.95;4.68;;;6.10;99.90;;;;;;8194451;28;20025;-78
2023/03/19 00:44:49;;;;;;;7.68;4.47;;;6.10;99.90;;;;;;8195014;28;20491;-78
2023/03/19 00:48:52;;;;;;;9.65;5.20;;;6.00;99.90;;;;;;8196967;28;20281;-78
2023/03/19 00:52:53;;;;;;;7.05;4.15;;;6.00;99.90;;;;;;8193539;28;20016;-78
2023/03/19 00:56:53;;;;;;;8.13;3.75;;;6.50;99.90;;;;;;8193751;28;20412;-78
2023/03/19 01:00:54;;;;;;;7.53;4.10;;;6.70;99.90;;;;;;8194273;28;20063;-78
2023/03/19 01:04:55;;;;;;;6.68;4.03;;;6.50;99.90;;;;;;8193225;28;20464;-79
2023/03/19 01:08:55;;;;;;;8.07;3.92;;;6.20;99.90;;;;;;8194290;28;20034;-79
2023/03/19 01:12:56;;;;;;;5.95;3.83;;;6.00;99.90;;;;;;8193276;28;20042;-78
2023/03/19 01:16:56;;;;;;;9.05;4.30;;;6.00;99.90;;;;;;8193467;28;20027;-79
2023/03/19 01:20:57;;;;;;;5.40;3.40;;;6.10;99.90;;;;;;8193442;28;20028;-78
2023/03/19 01:24:58;;;;;;;7.10;3.72;;;6.00;99.90;;;;;;8192959;28;20133;-78
2023/03/19 01:28:58;;;;;;;7.43;3.95;;;5.90;99.90;;;;;;8193956;28;20042;-79
2023/03/19 01:32:59;;;;;;;6.75;4.20;;;5.90;99.90;;;;;;8194122;28;20287;-79
2023/03/19 01:37:00;;;;;;;8.25;3.92;;;5.90;99.90;;;;;;8193177;28;20016;-78
2023/03/19 01:41:00;;;;;;;6.82;3.95;;;5.90;99.90;;;;;;8192781;28;20212;-78
2023/03/19 01:45:02;;;;;;;8.52;4.50;;;5.80;99.90;;;;;;8192589;28;20071;-78
2023/03/19 01:49:06;;;;;;;7.43;4.20;;;5.80;99.90;;;;;;8193176;28;20066;-78
2023/03/19 01:53:10;;;;;;;10.10;3.85;;;5.70;99.90;;;;;;8192842;28;20036;-79
2023/03/19 01:57:13;;;;;;;8.65;4.40;;;5.70;99.90;;;;;;8196010;28;20042;-78
2023/03/19 02:01:14;;;;;;;8.10;4.28;;;5.70;99.90;;;;;;8198262;28;20082;-78
2023/03/19 02:05:24;;;;;;;8.63;4.30;;;5.70;99.90;;;;;;8197909;28;20027;-78
2023/03/19 02:09:26;;;;;;;6.35;3.83;;;5.80;99.90;;;;;;8198217;28;20058;-78
2023/03/19 02:13:27;;;;;;;11.43;4.70;;;5.80;99.90;;;;;;8197698;28;20047;-78
2023/03/19 02:17:29;;;;;;;6.38;3.83;;;6.30;99.90;;;;;;8199375;28;20031;-78
2023/03/19 02:21:30;;;;;;;8.05;4.05;;;6.00;99.90;;;;;;8197996;28;20527;-78
2023/03/19 02:25:46;;;;;;;7.55;4.28;;;5.90;99.90;;;;;;8198206;28;20027;-79
2023/03/19 02:29:46;;;;;;;10.52;4.95;;;5.90;99.90;;;;;;8197361;28;20167;-80
2023/03/19 02:33:58;;;;;;;9.82;5.30;;;5.90;99.90;;;;;;8198606;28;20031;-78
2023/03/19 02:38:01;;;;;;;9.43;5.45;;;5.90;99.90;;;;;;8197082;28;20051;-78
2023/03/19 02:42:03;;;;;;;11.10;5.75;;;6.00;99.90;;;;;;8197345;28;20027;-78
2023/03/19 02:46:07;;;;;;;14.90;6.53;;;6.10;99.90;;;;;;8197635;28;20114;-79
2023/03/19 02:50:08;;;;;;;8.20;5.45;;;6.20;99.90;;;;;;8195893;28;20031;-78
2023/03/19 02:54:09;;;;;;;9.10;5.40;;;6.20;99.90;;;;;;8196352;28;20046;-78
2023/03/19 02:58:10;;;;;;;11.45;5.10;;;6.50;99.90;;;;;;8199429;28;20029;-78
2023/03/19 03:02:10;;;;;;;11.68;4.88;;;7.00;99.90;;;;;;8183756;28;20031;-79
2023/03/19 03:06:11;;;;;;;9.80;4.88;;;7.00;99.90;;;;;;8180642;28;20035;-78
2023/03/19 03:10:12;;;;;;;7.50;4.10;;;7.20;99.90;;;;;;8196708;28;20030;-79
2023/03/19 03:14:12;;;;;;;6.65;4.07;;;7.50;99.90;;;;;;8197240;28;20086;-78
2023/03/19 03:18:13;;;;;;;6.57;3.33;;;7.70;99.90;;;;;;8197066;28;20027;-82
2023/03/19 03:22:13;;;;;;;9.88;4.15;;;7.80;99.90;;;;;;8198730;28;20023;-78
2023/03/19 03:26:14;;;;;;;8.88;3.85;;;7.90;99.90;;;;;;8197832;28;20115;-79
2023/03/19 03:30:15;;;;;;;6.45;3.47;;;7.80;99.90;;;;;;8198589;28;20059;-78
2023/03/19 03:34:17;;;;;;;7.05;3.60;;;7.70;99.90;;;;;;8199999;28;20030;-78
2023/03/19 03:38:17;;;;;;;7.10;3.47;;;7.80;99.90;;;;;;8196832;28;20019;-77
2023/03/19 03:42:18;;;;;;;6.00;2.97;;;7.80;99.90;;;;;;8196365;28;20757;-78
2023/03/19 03:46:18;;;;;;;6.25;3.28;;;7.80;99.90;;;;;;8195869;28;20027;-78
2023/03/19 03:50:19;;;;;;;5.97;2.95;;;7.70;99.90;;;;;;8196846;28;20067;-77
2023/03/19 03:59:17;;;;;;;6.03;2.80;;;7.50;99.90;;;;;;8185163;28;20081;-77
2023/03/19 04:03:18;;;;;;;4.20;2.85;;;7.30;99.90;;;;;;8194568;28;20031;-78
2023/03/19 04:07:19;;;;;;;3.97;2.90;;;7.20;99.90;;;;;;8195119;28;20168;-78
2023/03/19 04:11:20;;;;;;;5.72;2.95;;;7.10;99.90;;;;;;8196235;28;20044;-77
2023/03/19 04:15:21;;;;;;;5.50;3.25;;;7.10;99.90;;;;;;8196079;28;20030;-77
2023/03/19 04:19:22;;;;;;;6.97;3.60;;;7.10;99.90;;;;;;8194226;28;20404;-76
2023/03/19 04:23:23;;;;;;;5.03;3.08;;;7.20;99.90;;;;;;8194257;28;20054;-77
2023/03/19 04:27:24;;;;;;;3.92;3.08;;;7.10;99.90;;;;;;8195515;28;20051;-77
2023/03/19 04:31:24;;;;;;;5.25;3.45;;;7.20;99.90;;;;;;8193912;28;20077;-77
2023/03/19 04:35:25;;;;;;;4.72;2.75;;;7.10;99.90;;;;;;8195077;28;20106;-77
2023/03/19 04:39:26;;;;;;;5.90;2.83;;;7.20;99.90;;;;;;8195970;28;20085;-77
2023/03/19 04:43:26;;;;;;;7.47;3.08;;;7.40;99.90;;;;;;8194298;28;20074;-76
2023/03/19 04:47:27;;;;;;;4.57;3.00;;;7.20;99.90;;;;;;8196055;28;20074;-77
2023/03/19 04:51:27;;;;;;;5.72;2.75;;;7.00;99.90;;;;;;8195714;28;20035;-76
2023/03/19 04:55:28;;;;;;;5.90;3.58;;;6.90;99.90;;;;;;8194109;28;20081;-78
2023/03/19 04:59:28;;;;;;;5.65;3.15;;;6.70;99.90;;;;;;8177450;28;20027;-77
2023/03/19 05:03:29;;;;;;;4.97;3.00;;;6.70;99.90;;;;;;8177687;28;20043;-77
2023/03/19 05:07:30;;;;;;;5.80;2.95;;;6.60;99.90;;;;;;8194859;28;20498;-77
2023/03/19 05:11:31;;;;;;;4.45;3.00;;;6.50;99.90;;;;;;8177659;28;20024;-77
2023/03/19 05:15:32;;;;;;;5.03;3.00;;;6.50;99.90;;;;;;8194010;28;20411;-78
2023/03/19 05:19:32;;;;;;;5.32;3.25;;;6.50;99.90;;;;;;8193449;28;20094;-77
2023/03/19 05:23:33;;;;;;;4.32;2.97;;;6.40;99.90;;;;;;8193300;28;20037;-77
2023/03/19 05:27:33;;;;;;;5.57;3.58;;;6.40;99.90;;;;;;8193688;28;20050;-77
2023/03/19 05:31:34;;;;;;;5.53;2.90;;;6.50;99.90;;;;;;8195137;28;20101;-77
2023/03/19 05:35:35;;;;;;;4.32;3.13;;;6.60;99.90;;;;;;8200205;28;20035;-77
2023/03/19 05:39:36;;;;;;;4.22;2.85;;;6.60;99.90;;;;;;8199967;28;20027;-76
2023/03/19 05:43:37;;;;;;;8.27;3.88;;;6.60;99.90;;;;;;8199233;28;20418;-77
2023/03/19 05:47:38;;;;;;;5.05;3.00;;;6.60;99.90;;;;;;8200942;28;20020;-77
2023/03/19 05:51:38;;;;;;;5.63;3.05;;;6.70;99.90;;;;;;8200701;28;20102;-78
2023/03/19 05:55:39;;;;;;;7.40;3.42;;;6.70;99.90;;;;;;8200745;28;20408;-77
2023/03/19 05:59:40;;;;;;;4.85;3.30;;;6.70;99.90;;;;;;8199017;28;20106;-77
2023/03/19 06:03:40;;;;;;;4.72;2.85;;;6.80;99.90;;;;;;8198865;28;20597;-77
2023/03/19 06:07:42;;;;;;;5.35;3.13;;;6.80;99.90;;;;;;8199091;28;20480;-78
2023/03/19 06:11:42;;;;;;;5.40;3.03;;;6.90;99.90;;;;;;8198987;28;20589;-78
2023/03/19 06:15:43;;;;;;;5.75;2.90;;;7.20;99.90;;;;;;8201403;28;20031;-79
2023/03/19 06:19:43;;;;;;;6.03;3.60;;;7.10;99.90;;;;;;8199858;28;20030;-77
2023/03/19 06:23:44;;;;;;;7.03;3.20;;;7.20;99.90;;;;;;8199185;28;20126;-77
2023/03/19 06:27:45;;;;;;;6.25;3.08;;;7.40;99.90;;;;;;8197943;28;20385;-77
2023/03/19 06:31:45;;;;;;;6.80;3.33;;;7.50;99.90;;;;;;8198113;28;20031;-78
2023/03/19 06:35:46;;;;;;;4.20;2.90;;;7.70;99.90;;;;;;8198079;28;20034;-77
2023/03/19 06:39:48;;;;;;;6.13;3.50;;;8.10;99.90;;;;;;8199469;28;20023;-77
2023/03/19 06:43:48;;;;;;;11.45;5.40;;;8.40;99.90;;;;;;8197419;28;20079;-77
2023/03/19 06:47:50;;;;;;;12.38;6.10;;;8.80;99.90;;;;;;8199094;28;20027;-77
2023/03/19 06:51:50;;;;;;;11.73;6.47;;;9.00;99.90;;;;;;8200533;28;20102;-77
2023/03/19 06:55:51;;;;;;;8.80;4.97;;;9.30;99.90;;;;;;8200450;28;20055;-77
2023/03/19 06:59:52;;;;;;;6.97;3.50;;;9.50;99.90;;;;;;8196721;28;20626;-77
2023/03/19 07:03:52;;;;;;;6.85;3.38;;;10.30;99.90;;;;;;8197625;28;20391;-77
2023/03/19 07:07:54;;;;;;;7.43;3.92;;;10.70;99.90;;;;;;8197594;28;20419;-78
2023/03/19 07:11:55;;;;;;;5.85;3.50;;;10.80;99.90;;;;;;8197513;28;20029;-78
2023/03/19 07:15:55;;;;;;;6.07;3.67;;;10.90;99.90;;;;;;8193742;28;20027;-77
2023/03/19 07:19:56;;;;;;;4.32;3.00;;;10.90;99.90;;;;;;8195981;28;20754;-77
2023/03/19 07:23:56;;;;;;;4.35;3.05;;;10.70;99.90;;;;;;8179539;28;20094;-77
2023/03/19 07:27:57;;;;;;;3.72;2.67;;;11.20;99.90;;;;;;8195405;28;20373;-78
2023/03/19 07:31:57;;;;;;;5.05;2.55;;;11.70;99.90;;;;;;8196647;28;20051;-77
2023/03/19 07:35:58;;;;;;;4.03;2.63;;;12.00;99.90;;;;;;8194204;28;20035;-77
2023/03/19 07:39:59;;;;;;;3.78;2.50;;;11.90;99.90;;;;;;8197847;28;20050;-78
2023/03/19 07:43:59;;;;;;;3.35;2.08;;;11.90;99.90;;;;;;8198838;28;20022;-77
2023/03/19 07:48:03;;;;;;;3.92;2.45;;;12.00;99.90;;;;;;8197459;28;20023;-78
2023/03/19 07:52:03;;;;;;;9.10;2.85;;;12.10;99.90;;;;;;8194895;28;20456;-78
2023/03/19 07:56:04;;;;;;;3.47;2.10;;;12.30;99.90;;;;;;8201677;28;20027;-78
2023/03/19 08:00:06;;;;;;;2.45;1.83;;;12.70;99.90;;;;;;8195619;28;20065;-78
2023/03/19 08:04:07;;;;;;;6.10;2.22;;;13.10;99.90;;;;;;8196122;28;20475;-77
2023/03/19 08:08:07;;;;;;;3.90;2.15;;;13.50;99.90;;;;;;8195483;28;20032;-78
2023/03/19 08:12:08;;;;;;;9.25;4.68;;;13.70;99.90;;;;;;8196392;28;20057;-77
2023/03/19 08:16:09;;;;;;;4.25;2.20;;;13.90;99.90;;;;;;8193950;28;20050;-77
2023/03/19 08:20:12;;;;;;;3.50;2.00;;;13.80;99.90;;;;;;8194493;28;20030;-78
2023/03/19 08:24:12;;;;;;;3.65;2.00;;;14.20;99.90;;;;;;8193530;28;20496;-77
2023/03/19 08:28:13;;;;;;;2.97;1.80;;;14.20;99.90;;;;;;8195838;28;20019;-78
2023/03/19 08:32:14;;;;;;;1.90;1.73;;;14.40;99.90;;;;;;8199794;28;20026;-77
2023/03/19 08:36:14;;;;;;;3.60;1.65;;;14.50;99.90;;;;;;8196116;28;20092;-77
2023/03/19 08:40:15;;;;;;;2.00;1.17;;;14.50;99.90;;;;;;8195168;28;20089;-78
2023/03/19 08:44:16;;;;;;;5.88;1.58;;;14.60;99.90;;;;;;8194455;28;20042;-77
2023/03/19 08:48:16;;;;;;;2.38;1.60;;;14.40;99.90;;;;;;8197361;28;20016;-77
2023/03/19 08:52:18;;;;;;;2.28;1.40;;;14.30;99.90;;;;;;8197465;28;20506;-76
2023/03/19 08:56:19;;;;;;;2.58;1.60;;;13.90;99.90;;;;;;8194848;28;20599;-77
2023/03/19 09:00:20;;;;;;;3.72;1.85;;;13.60;99.90;;;;;;8176654;28;20027;-78
2023/03/19 09:04:20;;;;;;;2.42;1.80;;;13.50;99.90;;;;;;8194486;28;20027;-78
2023/03/19 09:08:21;;;;;;;2.80;1.67;;;13.70;99.90;;;;;;8200186;28;20055;-78
2023/03/19 09:12:21;;;;;;;2.35;1.40;;;13.60;99.90;;;;;;8201934;28;20034;-78
2023/03/19 09:16:22;;;;;;;2.17;1.45;;;13.70;99.90;;;;;;8200527;28;20620;-79
2023/03/19 09:20:23;;;;;;;2.30;1.40;;;13.80;99.90;;;;;;8202606;28;20563;-78
2023/03/19 09:24:25;;;;;;;3.60;1.10;;;14.00;99.90;;;;;;8202928;28;20073;-78
2023/03/19 09:28:26;;;;;;;1.67;1.30;;;14.40;99.90;;;;;;8203682;28;20019;-77
2023/03/19 09:32:26;;;;;;;3.13;1.70;;;14.50;99.90;;;;;;8185087;28;20407;-79
2023/03/19 09:36:27;;;;;;;2.72;1.15;;;14.70;99.90;;;;;;8202686;28;20039;-78
2023/03/19 09:40:34;;;;;;;2.28;1.30;;;14.60;99.90;;;;;;8179055;23;20587;-81
2023/03/19 09:44:38;;;;;;;3.15;1.65;;;14.60;99.90;;;;;;8184233;28;20139;-80
2023/03/19 09:48:51;;;;;;;4.18;1.50;;;14.40;99.90;;;;;;8177144;28;20032;-80
2023/03/19 09:53:16;;;;;;;2.35;1.63;;;14.40;99.90;;;;;;8161979;29;20082;-80
2023/03/19 09:57:18;;;;;;;3.13;1.77;;;14.70;99.90;;;;;;8169022;29;20042;-81
2023/03/19 10:01:34;;;;;;;2.75;1.65;;;15.00;99.90;;;;;;8165765;29;20075;-81
2023/03/19 10:05:50;;;;;;;5.45;2.00;;;15.30;99.90;;;;;;8168720;29;20027;-81
2023/03/19 10:10:40;;;;;;;2.33;1.60;;;15.70;99.90;;;;;;8208458;23;20043;-80
2023/03/19 10:15:20;;;;;;;4.18;1.58;;;15.80;99.90;;;;;;8145099;28;20086;-80
2023/03/19 10:19:43;;;;;;;2.45;1.63;;;15.50;99.90;;;;;;8184293;28;20515;-80
2023/03/19 10:23:55;;;;;;;3.38;1.65;;;15.40;99.90;;;;;;8192776;28;20055;-80
2023/03/19 10:28:06;;;;;;;3.00;1.55;;;15.40;99.90;;;;;;8192164;28;20027;-80
2023/03/19 10:32:17;;;;;;;4.68;1.73;;;15.60;99.90;;;;;;8197340;28;20043;-80
2023/03/19 10:36:23;;;;;;;5.75;1.85;;;15.70;99.90;;;;;;8193463;28;20039;-80
2023/03/19 10:40:33;;;;;;;3.00;1.60;;;16.00;99.90;;;;;;8184980;28;20035;-81
2023/03/19 10:44:46;;;;;;;3.87;1.70;;;16.80;99.90;;;;;;8179324;28;20041;-80
2023/03/19 10:48:47;;;;;;;3.67;1.63;;;17.10;99.90;;;;;;8200683;28;20038;-81
2023/03/19 10:52:59;;;;;;;1.60;1.20;;;17.10;99.90;;;;;;8176047;28;20101;-82
2023/03/19 10:57:00;;;;;;;2.50;1.38;;;16.90;99.90;;;;;;8198007;28;20485;-82
2023/03/19 11:01:09;;;;;;;2.72;1.58;;;16.90;99.90;;;;;;8186147;29;20035;-82
2023/03/19 11:05:13;;;;;;;3.00;1.58;;;17.10;99.90;;;;;;8185952;28;20067;-82
2023/03/19 11:09:37;;;;;;;1.80;1.25;;;17.80;99.90;;;;;;8184978;28;20089;-82
2023/03/19 11:13:37;;;;;;;3.38;1.15;;;18.60;99.90;;;;;;8203774;28;20110;-82
2023/03/19 11:17:44;;;;;;;1.55;1.20;;;17.80;99.90;;;;;;8185275;28;20027;-82
2023/03/19 11:21:57;;;;;;;3.20;1.60;;;17.50;99.90;;;;;;8199514;28;20023;-81
2023/03/19 11:26:00;;;;;;;1.80;1.40;;;17.60;99.90;;;;;;8196501;28;21525;-82
2023/03/19 11:30:03;;;;;;;2.65;1.40;;;17.70;99.90;;;;;;8176030;28;20086;-82
2023/03/19 11:34:22;;;;;;;2.33;1.52;;;18.00;99.90;;;;;;8177136;28;20023;-81
2023/03/19 11:38:53;;;;;;;2.75;1.58;;;18.70;99.90;;;;;;8189752;28;20508;-82
2023/03/19 11:43:08;;;;;;;;;;;19.10;99.90;;;;;;8193933;28;20408;-82
2023/03/19 11:47:20;;;;;;;1.70;1.40;;;19.10;98.40;;;;;;8193352;28;19918;-81
2023/03/19 11:52:00;;;;;;;4.65;1.63;;;18.80;98.90;;;;;;8176963;28;20031;-82
2023/03/19 11:56:19;;;;;;;1.63;1.45;;;18.90;98.10;;;;;;8191998;28;20114;-82
2023/03/19 12:00:40;;;;;;;2.67;1.42;;;18.90;98.60;;;;;;8189421;28;20452;-82
2023/03/19 12:05:02;;;;;;;2.58;1.55;;;19.30;99.20;;;;;;8175649;28;20038;-82
2023/03/19 12:09:11;;;;;;;8.60;1.40;;;19.50;99.50;;;;;;8193003;28;20031;-82
2023/03/19 12:13:22;;;;;;;1.63;1.40;;;19.30;97.90;;;;;;8190886;28;20024;-82
2023/03/19 12:17:34;;;;;;;2.75;1.40;;;19.10;98.80;;;;;;8173908;28;20110;-83
2023/03/19 12:21:44;;;;;;;4.30;1.90;;;19.50;97.00;;;;;;8189236;28;20031;-83
2023/03/19 12:26:07;;;;;;;3.92;1.80;;;20.10;95.50;;;;;;8174771;28;20024;-81
2023/03/19 12:30:17;;;;;;;3.20;1.45;;;19.30;97.20;;;;;;8187232;28;20023;-83
2023/03/19 12:34:37;;;;;;;3.05;1.55;;;19.80;95.30;;;;;;8176542;28;20542;-83
2023/03/19 12:38:59;;;;;;;5.03;1.85;;;20.60;96.60;;;;;;8175993;28;20061;-82
2023/03/19 12:43:06;;;;;;;3.83;1.75;;;21.70;92.90;;;;;;8172293;28;20023;-84
2023/03/19 12:47:15;;;;;;;2.42;1.70;;;22.00;89.90;;;;;;8195782;28;20042;-82
2023/03/19 12:51:20;;;;;;;3.35;1.60;;;21.60;89.90;;;;;;8177365;28;20207;-83
2023/03/19 12:55:35;;;;;;;3.72;1.80;;;22.30;90.90;;;;;;8177617;28;20589;-84
2023/03/19 12:59:43;;;;;;;4.05;1.60;;;23.10;82.80;;;;;;8178155;28;20023;-80
2023/03/19 13:03:56;;;;;;;2.08;1.50;;;24.60;77.40;;;;;;8195904;28;20063;-82
2023/03/19 13:08:10;;;;;;;2.97;1.52;;;24.50;76.50;;;;;;8174982;28;20031;-79
2023/03/19 13:12:17;;;;;;;3.85;1.77;;;24.80;76.30;;;;;;8194375;28;20031;-81
2023/03/19 13:16:30;;;;;;;3.22;2.08;;;23.10;77.60;;;;;;8195721;28;20439;-82
2023/03/19 13:20:57;;;;;;;2.63;1.55;;;24.20;72.30;;;;;;8180120;28;20042;-81
2023/03/19 13:25:00;;;;;;;2.65;1.63;;;25.60;70.20;;;;;;8197724;28;20447;-81
2023/03/19 13:29:16;;;;;;;2.95;1.92;;;24.80;68.80;;;;;;8178097;28;20440;-81
2023/03/19 13:33:21;;;;;;;2.83;1.67;;;25.50;66.80;;;;;;8192635;28;20034;-79
2023/03/19 13:37:22;;;;;;;2.95;1.80;;;23.70;70.00;;;;;;8196276;28;20028;-81
2023/03/19 13:41:43;;;;;;;4.65;1.80;;;20.80;76.40;;;;;;8177529;28;20492;-79
2023/03/19 13:45:44;;;;;;;3.67;1.85;;;20.30;80.80;;;;;;8178237;28;20039;-80
2023/03/19 13:50:07;;;;;;;4.43;1.98;;;19.70;81.50;;;;;;8182278;28;20039;-80
2023/03/19 13:54:11;;;;;;;7.03;2.05;;;18.70;84.80;;;;;;8194548;28;20041;-80
2023/03/19 14:02:57;;;;;;;2.58;1.63;;;17.10;91.30;;;;;;8153992;28;20086;-80
2023/03/19 14:07:10;;;;;;;3.65;1.80;;;18.20;92.70;;;;;;8200068;28;20653;-80
2023/03/19 14:11:27;;;;;;;4.47;1.73;;;23.10;78.00;;;;;;8183620;28;20031;-80
2023/03/19 14:15:29;;;;;;;2.55;1.80;;;24.90;67.90;;;;;;8181701;28;20034;-80
2023/03/19 14:19:32;;;;;;;3.42;1.83;;;23.40;72.40;;;;;;8184041;28;20081;-80
2023/03/19 14:23:36;;;;;;;4.63;1.75;;;21.40;79.50;;;;;;8198870;28;20035;-80
2023/03/19 14:27:41;;;;;;;2.85;1.90;;;21.30;80.90;;;;;;8197158;28;20511;-80
2023/03/19 14:32:00;;;;;;;1.80;1.40;;;21.70;75.60;;;;;;8199776;28;20399;-80
2023/03/19 14:36:03;;;;;;;3.22;1.95;;;19.60;81.90;;;;;;8196519;28;20090;-81
2023/03/19 14:40:20;;;;;;;3.33;1.98;;;18.30;86.30;;;;;;8199385;28;20063;-80
2023/03/19 14:45:03;;;;;;;3.08;1.75;;;17.60;87.30;;;;;;8197341;28;20050;-81
2023/03/19 14:49:41;;;;;;;2.42;1.90;;;17.30;90.60;;;;;;8189889;28;20526;-80
2023/03/19 14:54:11;;;;;;;3.63;2.10;;;16.90;91.60;;;;;;8199878;28;20023;-79
2023/03/19 14:58:11;;;;;;;4.28;2.25;;;16.80;91.50;;;;;;8172444;28;20039;-81
2023/03/19 15:02:31;;;;;;;3.50;2.20;;;16.80;91.90;;;;;;8184869;28;20504;-81
2023/03/19 15:06:35;;;;;;;3.40;1.83;;;17.10;93.20;;;;;;8174874;28;20122;-81
2023/03/19 15:10:50;;;;;;;3.83;1.83;;;17.30;93.20;;;;;;8180062;28;20093;-80
2023/03/19 15:15:11;;;;;;;5.45;1.90;;;18.10;90.30;;;;;;8189541;28;20110;-79
2023/03/19 15:19:15;;;;;;;3.17;2.00;;;20.20;83.80;;;;;;8169666;28;20029;-81
2023/03/19 15:23:20;;;;;;;4.85;1.90;;;20.70;80.40;;;;;;8169348;28;20050;-80
2023/03/19 15:27:24;;;;;;;2.83;2.03;;;19.90;80.80;;;;;;8172793;28;20300;-81
2023/03/19 15:31:46;;;;;;;4.75;1.95;;;18.80;84.90;;;;;;8182583;28;20054;-81
2023/03/19 15:35:47;;;;;;;4.20;2.20;;;17.80;90.10;;;;;;8190553;28;20143;-80
2023/03/19 15:39:52;;;;;;;3.85;2.30;;;17.20;90.70;;;;;;8177136;28;20037;-80
2023/03/19 15:43:53;;;;;;;2.95;1.80;;;16.90;92.50;;;;;;8185585;28;20023;-80
2023/03/19 15:48:23;;;;;;;2.88;2.08;;;16.80;92.60;;;;;;8196613;28;20126;-80
2023/03/19 15:52:24;;;;;;;3.22;2.20;;;16.80;93.40;;;;;;8154358;28;20036;-80
2023/03/19 15:56:26;;;;;;;2.67;1.95;;;16.80;93.60;;;;;;8164326;28;20393;-80
2023/03/19 16:00:26;;;;;;;3.13;1.90;;;17.30;91.30;;;;;;8164051;28;20051;-81
2023/03/19 16:04:28;;;;;;;2.53;1.95;;;17.60;91.30;;;;;;8182709;28;20543;-80
2023/03/19 16:08:33;;;;;;;4.40;2.13;;;17.70;90.20;;;;;;8172239;28;20026;-80
2023/03/19 16:12:38;;;;;;;2.28;1.58;;;18.00;90.90;;;;;;8173604;28;20408;-79
2023/03/19 16:16:40;;;;;;;7.00;2.08;;;17.40;91.70;;;;;;8178845;28;20028;-81
2023/03/19 16:20:42;;;;;;;4.68;2.22;;;16.70;91.20;;;;;;8182801;28;20035;-79
2023/03/19 16:24:45;;;;;;;1.98;1.13;;;16.00;94.00;;;;;;8172179;28;20125;-80
2023/03/19 16:28:55;;;;;;;2.22;1.10;;;14.40;98.70;;;;;;8190592;28;20055;-79
2023/03/19 16:33:05;;;;;;;1.93;0.97;;;13.50;99.90;;;;;;8189682;28;20031;-80
2023/03/19 16:37:26;;;;;;;1.90;1.10;;;12.80;99.90;;;;;;8190717;28;20038;-81
2023/03/19 16:41:33;;;;;;;2.60;1.20;;;12.60;99.90;;;;;;8177102;28;20028;-81
2023/03/19 16:45:34;;;;;;;1.42;0.98;;;12.40;99.90;;;;;;8179140;28;20526;-80
2023/03/19 16:49:34;;;;;;;3.40;1.67;;;12.40;99.90;;;;;;8184802;28;20050;-80
2023/03/19 16:53:35;;;;;;;6.82;1.45;;;12.20;99.90;;;;;;8197539;28;20026;-81
2023/03/19 16:57:35;;;;;;;2.10;1.10;;;12.20;99.90;;;;;;8179963;28;20097;-81
2023/03/19 17:01:37;;;;;;;3.20;1.20;;;12.30;99.90;;;;;;8196197;28;20034;-81
2023/03/19 17:05:38;;;;;;;1.70;1.13;;;12.20;99.90;;;;;;8192622;28;20039;-81
2023/03/19 17:09:38;;;;;;;1.52;1.20;;;12.20;99.90;;;;;;8178381;28;20027;-81
2023/03/19 17:13:41;;;;;;;1.55;1.15;;;12.10;99.90;;;;;;8177471;28;20027;-81
2023/03/19 17:17:41;;;;;;;2.38;1.40;;;11.90;99.90;;;;;;8188699;28;20027;-80
2023/03/19 17:21:42;;;;;;;2.22;1.15;;;11.90;99.90;;;;;;8172414;28;20031;-79
2023/03/19 17:25:44;;;;;;;4.65;1.48;;;11.80;99.90;;;;;;8170917;28;20039;-80
2023/03/19 17:29:44;;;;;;;1.45;1.20;;;12.00;99.90;;;;;;8181669;28;20081;-83
2023/03/19 17:33:45;;;;;;;2.33;1.10;;;11.60;99.90;;;;;;8193686;28;20027;-80
2023/03/19 17:37:47;;;;;;;2.70;1.58;;;11.40;99.90;;;;;;8176742;28;20066;-80
2023/03/19 17:41:48;;;;;;;3.78;1.60;;;11.70;99.90;;;;;;8183370;28;20027;-79
2023/03/19 17:45:49;;;;;;;2.03;1.33;;;11.60;99.90;;;;;;8178072;28;20492;-78
2023/03/19 17:49:50;;;;;;;3.65;2.15;;;11.40;99.90;;;;;;8178588;28;20103;-79
2023/03/19 17:53:53;;;;;;;3.05;1.98;;;11.20;99.90;;;;;;8180623;28;20061;-78
2023/03/19 17:57:54;;;;;;;4.97;2.30;;;10.80;99.90;;;;;;8188536;28;20035;-79
2023/03/19 18:01:55;;;;;;;3.60;2.92;;;10.60;99.90;;;;;;8178355;28;20575;-79
2023/03/19 18:05:56;;;;;;;5.47;2.92;;;10.20;99.90;;;;;;8183741;28;20055;-79
2023/03/19 18:14:15;;;;;;;5.40;3.22;;;10.10;99.90;;;;;;8198020;28;20061;-80
2023/03/19 18:18:55;;;;;;;6.45;2.97;;;9.80;99.90;;;;;;8200860;28;20673;-79
2023/03/19 18:22:55;;;;;;;5.05;3.00;;;9.80;99.90;;;;;;8129541;29;20064;-80
2023/03/19 18:26:56;;;;;;;5.57;3.20;;;9.60;99.90;;;;;;8188462;28;20047;-78
2023/03/19 18:30:59;;;;;;;3.35;2.78;;;9.60;99.90;;;;;;8200307;28;20043;-79
2023/03/19 18:35:00;;;;;;;6.40;2.53;;;9.60;99.90;;;;;;8210760;28;20035;-78
2023/03/19 18:39:00;;;;;;;3.90;2.70;;;9.60;99.90;;;;;;8207456;28;20031;-78
2023/03/19 18:43:01;;;;;;;5.13;3.20;;;9.50;99.90;;;;;;8195628;28;20038;-80
2023/03/19 18:47:01;;;;;;;4.88;3.22;;;9.40;99.90;;;;;;8211074;28;20126;-80
2023/03/19 18:51:02;;;;;;;5.30;3.15;;;9.60;99.90;;;;;;8196832;28;20038;-78
2023/03/19 18:55:03;;;;;;;5.45;3.10;;;9.50;99.90;;;;;;8194047;28;20039;-79
2023/03/19 18:59:18;;;;;;;6.30;3.15;;;9.50;99.90;;;;;;8208549;28;20117;-79
2023/03/19 19:03:27;;;;;;;4.35;2.60;;;9.40;99.90;;;;;;8209158;28;20320;-79
2023/03/19 19:07:27;;;;;;;4.90;3.03;;;9.40;99.90;;;;;;8194629;28;20023;-79
2023/03/19 19:11:28;;;;;;;4.88;2.78;;;9.50;99.90;;;;;;8212145;28;20126;-78
2023/03/19 19:15:34;;;;;;;4.88;3.35;;;9.40;99.90;;;;;;8214350;28;20062;-78
2023/03/19 19:19:35;;;;;;;5.03;2.90;;;9.30;99.90;;;;;;8199209;28;20054;-80
2023/03/19 19:23:35;;;;;;;6.70;3.10;;;9.30;99.90;;;;;;8197441;28;20030;-79
2023/03/19 19:27:36;;;;;;;3.85;2.85;;;9.20;99.90;;;;;;8198290;28;20035;-79
2023/03/19 19:31:37;;;;;;;6.85;2.70;;;9.10;99.90;;;;;;8205343;28;20030;-80
2023/03/19 19:35:37;;;;;;;6.93;2.92;;;9.20;99.90;;;;;;8217224;28;20380;-79
2023/03/19 19:39:38;;;;;;;5.50;3.03;;;9.20;99.90;;;;;;8211967;28;20034;-79
2023/03/19 19:43:39;;;;;;;4.10;2.55;;;9.20;99.90;;;;;;8212991;28;20658;-79
2023/03/19 19:47:42;;;;;;;3.95;2.58;;;9.20;99.90;;;;;;8213078;28;20051;-79
2023/03/19 19:51:42;;;;;;;3.67;2.55;;;9.10;99.90;;;;;;8213492;28;20023;-79
2023/03/19 19:55:44;;;;;;;3.70;2.45;;;9.00;99.90;;;;;;8198177;28;20493;-79
2023/03/19 19:59:45;;;;;;;4.32;2.60;;;9.00;99.90;;;;;;8198667;28;20051;-80
2023/03/19 20:03:46;;;;;;;4.45;3.20;;;9.10;99.90;;;;;;8198702;28;20674;-80
2023/03/19 20:07:52;;;;;;;3.42;2.42;;;9.10;99.90;;;;;;8196607;28;20023;-80
2023/03/19 20:11:53;;;;;;;4.75;2.60;;;9.10;99.90;;;;;;8194476;28;20031;-79
2023/03/19 20:15:55;;;;;;;3.97;2.60;;;9.00;99.90;;;;;;8199878;28;20031;-79
2023/03/19 20:19:56;;;;;;;3.75;2.72;;;9.20;99.90;;;;;;8214594;28;20107;-80
2023/03/19 20:23:57;;;;;;;4.53;2.90;;;9.10;99.90;;;;;;8198515;28;20036;-80
2023/03/19 20:28:00;;;;;;;6.05;3.00;;;9.00;99.90;;;;;;8197801;28;20023;-80
2023/03/19 20:32:01;;;;;;;4.88;2.58;;;9.00;99.90;;;;;;8197295;28;20025;-79
2023/03/19 20:36:02;;;;;;;3.95;2.72;;;8.90;99.90;;;;;;8213121;28;20035;-79
2023/03/19 20:40:02;;;;;;;4.10;2.58;;;8.80;99.90;;;;;;8195138;28;20134;-79
2023/03/19 20:44:04;;;;;;;4.60;2.25;;;8.90;99.90;;;;;;8209414;28;20050;-80
2023/03/19 20:48:13;;;;;;;4.18;2.47;;;8.90;99.90;;;;;;8199032;28;20090;-80
2023/03/19 20:52:15;;;;;;;3.97;2.38;;;8.90;99.90;;;;;;8216014;28;20034;-79
2023/03/19 20:56:19;;;;;;;3.70;2.63;;;8.90;99.90;;;;;;8198029;28;20499;-79
2023/03/19 21:00:24;;;;;;;4.53;2.58;;;8.80;99.90;;;;;;8198752;28;20058;-79
2023/03/19 21:04:24;;;;;;;2.70;2.15;;;8.80;99.90;;;;;;8221986;28;20031;-80
2023/03/19 21:08:31;;;;;;;3.95;2.63;;;8.80;99.90;;;;;;8205223;28;20034;-80
2023/03/19 21:12:32;;;;;;;3.97;2.50;;;8.80;99.90;;;;;;8231514;28;20444;-80
2023/03/19 21:16:33;;;;;;;3.83;2.47;;;8.70;99.90;;;;;;8222240;28;20492;-80
2023/03/19 21:20:35;;;;;;;3.20;2.40;;;8.70;99.90;;;;;;8221023;28;20057;-80
2023/03/19 21:24:35;;;;;;;3.05;2.03;;;8.80;99.90;;;;;;8220339;28;20019;-81
2023/03/19 21:28:38;;;;;;;4.38;2.40;;;8.70;99.90;;;;;;8219793;28;20114;-80
2023/03/19 21:32:39;;;;;;;3.65;2.17;;;8.70;99.90;;;;;;8231673;28;20518;-79
2023/03/19 21:36:39;;;;;;;3.28;2.47;;;8.80;99.90;;;;;;8230419;28;20023;-80